createdAt,value
2022-12-27T00:01:54.385Z,12.57
2022-12-27T00:04:43.865Z,13.77
2022-12-27T00:07:33.232Z,11.77
2022-12-27T00:10:22.689Z,9.90
2022-12-27T00:13:12.077Z,11.13
2022-12-27T00:16:09.934Z,11.27
2022-12-27T00:19:01.226Z,11.47
2022-12-27T00:21:50.564Z,12.90
2022-12-27T00:24:39.830Z,8.97
2022-12-27T00:27:29.507Z,10.30
2022-12-27T00:30:18.797Z,17.20
2022-12-27T00:33:08.088Z,12.00
2022-12-27T00:36:01.148Z,9.17
2022-12-27T00:38:51.034Z,11.60
2022-12-27T00:41:40.537Z,16.70
2022-12-27T00:44:29.920Z,10.20
2022-12-27T00:47:19.255Z,11.07
2022-12-27T00:50:09.146Z,12.00
2022-12-27T00:53:00.015Z,22.90
2022-12-27T00:55:49.281Z,12.83
2022-12-27T00:58:40.994Z,11.00
2022-12-27T01:01:32.622Z,11.03
2022-12-27T01:04:22.029Z,10.40
2022-12-27T01:07:11.337Z,11.27
2022-12-27T01:10:02.089Z,12.50
2022-12-27T01:12:51.478Z,19.47
2022-12-27T01:15:43.613Z,22.37
2022-12-27T01:18:32.949Z,10.97
2022-12-27T01:21:23.608Z,11.13
2022-12-27T01:24:12.983Z,12.27
2022-12-27T01:27:03.738Z,10.57
2022-12-27T01:29:53.149Z,11.67
2022-12-27T01:32:42.503Z,10.77
2022-12-27T01:35:31.849Z,13.87
2022-12-27T01:38:21.156Z,13.10
2022-12-27T01:41:34.440Z,11.60
2022-12-27T01:44:57.634Z,11.53
2022-12-27T01:47:52.825Z,13.13
2022-12-27T01:50:46.572Z,10.73
2022-12-27T01:53:39.517Z,12.90
2022-12-27T01:56:31.230Z,11.97
2022-12-27T01:59:20.688Z,13.83
2022-12-27T02:02:11.730Z,10.87
2022-12-27T02:05:02.208Z,14.27
2022-12-27T02:08:13.475Z,10.30
2022-12-27T02:13:54.298Z,11.27
2022-12-27T02:16:43.544Z,11.77
2022-12-27T02:19:44.379Z,13.30
2022-12-27T02:23:22.690Z,13.27
2022-12-27T02:26:52.278Z,13.23
2022-12-27T02:29:56.002Z,12.00
2022-12-27T02:32:49.486Z,10.10
2022-12-27T02:35:41.841Z,11.07
2022-12-27T02:38:34.527Z,14.37
2022-12-27T02:41:41.308Z,11.27
2022-12-27T02:44:47.747Z,11.57
2022-12-27T02:47:56.297Z,7.17
2022-12-27T02:51:13.897Z,6.03
2022-12-27T02:54:11.718Z,6.90
2022-12-27T02:57:12.652Z,6.67
2022-12-27T03:00:27.565Z,5.97
2022-12-27T03:03:42.603Z,3.63
2022-12-27T03:06:54.434Z,5.10
2022-12-27T03:10:08.664Z,4.83
2022-12-27T03:13:22.040Z,4.40
2022-12-27T03:16:17.771Z,4.13
2022-12-27T03:19:40.007Z,4.07
2022-12-27T03:22:48.771Z,2.30
2022-12-27T03:25:39.303Z,2.73
2022-12-27T03:28:48.624Z,1.87
2022-12-27T03:32:00.429Z,1.83
2022-12-27T03:34:55.544Z,1.47
2022-12-27T03:38:04.407Z,1.90
2022-12-27T03:41:16.668Z,1.60
2022-12-27T03:44:24.618Z,1.67
2022-12-27T03:47:17.931Z,1.50
2022-12-27T03:50:12.389Z,1.50
2022-12-27T03:53:09.057Z,1.47
2022-12-27T03:55:58.950Z,1.20
2022-12-27T03:58:48.270Z,1.30
2022-12-27T04:01:37.639Z,1.17
2022-12-27T04:04:27.141Z,1.40
2022-12-27T04:07:18.009Z,1.30
2022-12-27T04:10:25.180Z,1.27
2022-12-27T04:13:31.694Z,1.40
2022-12-27T04:16:38.622Z,1.80
2022-12-27T04:19:45.151Z,1.40
2022-12-27T04:22:53.426Z,0.90
2022-12-27T04:25:59.913Z,1.33
2022-12-27T04:29:06.347Z,1.50
2022-12-27T04:32:12.779Z,2.17
2022-12-27T04:35:02.010Z,1.20
2022-12-27T04:37:52.847Z,1.50
2022-12-27T04:40:59.577Z,1.73
2022-12-27T04:44:06.304Z,1.17
2022-12-27T04:47:12.795Z,1.50
2022-12-27T04:50:19.467Z,1.37
2022-12-27T04:53:30.247Z,1.30
2022-12-27T04:56:19.604Z,1.30
2022-12-27T04:59:26.101Z,1.27
2022-12-27T05:02:16.433Z,1.40
2022-12-27T05:05:06.217Z,1.50
2022-12-27T05:08:13.229Z,1.30
2022-12-27T05:11:21.375Z,1.30
2022-12-27T05:14:16.561Z,1.50
2022-12-27T05:17:05.989Z,1.30
2022-12-27T05:19:55.314Z,1.30
2022-12-27T05:23:02.082Z,1.60
2022-12-27T05:25:51.371Z,1.30
2022-12-27T05:28:42.208Z,1.20
2022-12-27T05:31:31.869Z,1.20
2022-12-27T05:34:21.293Z,1.20
2022-12-27T05:37:10.558Z,1.30
2022-12-27T05:39:59.789Z,1.17
2022-12-27T05:42:49.115Z,1.30
2022-12-27T05:45:39.821Z,1.50
2022-12-27T05:48:30.074Z,1.63
2022-12-27T05:51:21.626Z,1.60
2022-12-27T05:54:10.977Z,1.40
2022-12-27T05:57:00.228Z,1.43
2022-12-27T05:59:49.524Z,2.40
2022-12-27T06:02:40.836Z,1.43
2022-12-27T06:05:30.263Z,1.43
2022-12-27T06:08:19.775Z,1.53
2022-12-27T06:11:10.937Z,1.70
2022-12-27T06:14:00.275Z,2.17
2022-12-27T06:16:49.654Z,2.20
2022-12-27T06:19:40.541Z,2.50
2022-12-27T06:22:29.803Z,2.07
2022-12-27T06:25:19.317Z,2.37
2022-12-27T06:28:08.506Z,1.80
2022-12-27T06:30:59.595Z,2.10
2022-12-27T06:33:49.634Z,2.40
2022-12-27T06:36:40.305Z,1.80
2022-12-27T06:39:29.615Z,2.00
2022-12-27T06:42:18.932Z,1.87
2022-12-27T06:45:10.678Z,2.43
2022-12-27T06:47:59.975Z,2.10
2022-12-27T06:50:49.428Z,1.60
2022-12-27T06:53:40.285Z,2.30
2022-12-27T06:56:29.695Z,1.33
2022-12-27T06:59:19.095Z,2.27
2022-12-27T07:02:08.990Z,2.03
2022-12-27T07:04:58.467Z,1.90
2022-12-27T07:07:47.805Z,2.00
2022-12-27T07:10:39.762Z,1.80
2022-12-27T07:13:29.148Z,2.00
2022-12-27T07:16:20.596Z,2.57
2022-12-27T07:19:12.447Z,2.00
2022-12-27T07:22:01.842Z,2.03
2022-12-27T07:24:51.143Z,2.73
2022-12-27T07:27:41.996Z,2.03
2022-12-27T07:30:31.318Z,2.30
2022-12-27T07:33:20.719Z,2.37
2022-12-27T07:36:13.694Z,2.23
2022-12-27T07:39:03.395Z,2.37
2022-12-27T07:41:52.752Z,2.17
2022-12-27T07:44:43.632Z,2.10
2022-12-27T07:47:32.990Z,2.73
2022-12-27T07:50:22.342Z,2.50
2022-12-27T07:53:11.662Z,4.47
2022-12-27T07:56:01.360Z,2.33
2022-12-27T07:58:52.151Z,2.43
2022-12-27T08:02:00.232Z,2.23
2022-12-27T08:04:49.714Z,2.23
2022-12-27T08:07:40.074Z,2.47
2022-12-27T08:10:29.443Z,2.87
2022-12-27T08:13:18.849Z,2.30
2022-12-27T08:16:09.546Z,2.20
2022-12-27T08:19:06.431Z,2.63
2022-12-27T08:21:57.789Z,2.40
2022-12-27T08:24:47.379Z,3.03
2022-12-27T08:27:36.805Z,2.23
2022-12-27T08:30:26.140Z,2.70
2022-12-27T08:33:16.781Z,2.30
2022-12-27T08:36:45.042Z,2.47
2022-12-27T08:39:18.563Z,2.33
2022-12-27T08:42:07.918Z,2.20
2022-12-27T08:44:57.177Z,2.40
2022-12-27T08:47:46.555Z,2.20
2022-12-27T08:50:36.681Z,2.20
2022-12-27T08:53:27.471Z,2.60
2022-12-27T08:56:16.766Z,2.03
2022-12-27T08:59:06.034Z,2.07
2022-12-27T09:01:55.594Z,4.53
2022-12-27T09:04:44.918Z,2.57
2022-12-27T09:07:34.288Z,2.17
2022-12-27T09:10:26.007Z,4.40
2022-12-27T09:13:15.399Z,2.23
2022-12-27T09:16:07.964Z,2.33
2022-12-27T09:18:59.028Z,2.20
2022-12-27T09:21:48.297Z,1.60
2022-12-27T09:24:37.652Z,2.40
2022-12-27T09:27:28.540Z,2.20
2022-12-27T09:30:18.008Z,3.00
2022-12-27T09:33:07.950Z,1.70
2022-12-27T09:36:03.311Z,2.40
2022-12-27T09:38:55.722Z,2.33
2022-12-27T09:45:14.603Z,2.20
2022-12-27T09:48:07.722Z,2.30
2022-12-27T09:51:00.459Z,1.97
2022-12-27T09:53:58.646Z,2.57
2022-12-27T09:57:18.261Z,2.90
2022-12-27T10:00:01.087Z,2.13
2022-12-27T10:02:52.985Z,2.30
2022-12-27T10:05:50.872Z,2.40
2022-12-27T10:08:52.169Z,2.17
2022-12-27T10:11:48.482Z,2.30
2022-12-27T10:14:54.600Z,2.60
2022-12-27T10:17:56.730Z,12.47
2022-12-27T10:20:59.634Z,2.77
2022-12-27T10:23:55.943Z,2.30
2022-12-27T10:26:45.846Z,2.60
2022-12-27T10:29:35.364Z,2.13
2022-12-27T10:32:24.836Z,2.10
2022-12-27T10:35:19.636Z,2.13
2022-12-27T10:38:13.189Z,2.43
2022-12-27T10:41:18.908Z,2.40
2022-12-27T10:44:12.630Z,2.60
2022-12-27T10:47:02.380Z,2.70
2022-12-27T10:50:11.340Z,2.30
2022-12-27T10:53:02.201Z,2.57
2022-12-27T10:55:51.649Z,2.40
2022-12-27T10:58:43.369Z,2.50
2022-12-27T11:01:35.188Z,2.70
2022-12-27T11:04:26.292Z,2.20
2022-12-27T11:07:19.079Z,2.60
2022-12-27T11:10:18.183Z,2.40
2022-12-27T11:13:08.907Z,2.20
2022-12-27T11:15:59.226Z,2.70
2022-12-27T11:18:53.965Z,2.90
2022-12-27T11:21:43.336Z,3.10
2022-12-27T11:24:32.900Z,2.30
2022-12-27T11:27:27.329Z,2.37
2022-12-27T11:30:30.595Z,2.60
2022-12-27T11:33:25.468Z,2.57
2022-12-27T11:36:17.609Z,2.80
2022-12-27T11:39:07.905Z,2.27
2022-12-27T11:42:00.796Z,2.50
2022-12-27T11:45:01.198Z,2.47
2022-12-27T11:47:54.779Z,2.67
2022-12-27T11:51:07.379Z,2.63
2022-12-27T11:54:12.670Z,2.50
2022-12-27T11:57:12.927Z,2.90
2022-12-27T12:00:14.259Z,2.90
2022-12-27T12:03:40.464Z,3.50
2022-12-27T12:06:46.108Z,3.03
2022-12-27T12:09:55.617Z,3.23
2022-12-27T12:13:14.425Z,3.00
2022-12-27T12:16:28.030Z,3.53
2022-12-27T12:19:32.461Z,3.40
2022-12-27T12:22:45.144Z,3.03
2022-12-27T12:26:13.742Z,3.77
2022-12-27T12:29:51.764Z,3.70
2022-12-27T12:32:57.078Z,3.87
2022-12-27T12:36:03.461Z,3.47
2022-12-27T12:38:59.732Z,4.30
2022-12-27T12:42:12.062Z,3.97
2022-12-27T12:45:33.503Z,3.87
2022-12-27T12:49:02.268Z,3.97
2022-12-27T12:52:26.777Z,4.07
2022-12-27T12:55:38.314Z,3.70
2022-12-27T12:58:47.061Z,3.47
2022-12-27T13:01:52.985Z,3.30
2022-12-27T13:05:09.650Z,3.90
2022-12-27T13:08:10.334Z,3.77
2022-12-27T13:11:41.458Z,4.13
2022-12-27T13:14:44.527Z,2.90
2022-12-27T13:17:42.341Z,3.60
2022-12-27T13:20:52.026Z,3.27
2022-12-27T13:23:54.790Z,3.13
2022-12-27T13:26:51.893Z,2.80
2022-12-27T13:29:53.539Z,2.77
2022-12-27T13:33:02.470Z,2.70
2022-12-27T13:36:17.646Z,2.93
2022-12-27T13:39:26.239Z,3.10
2022-12-27T13:43:01.064Z,2.60
2022-12-27T13:46:07.305Z,2.87
2022-12-27T13:49:13.954Z,2.83
2022-12-27T13:52:17.741Z,2.50
2022-12-27T13:55:38.514Z,2.97
2022-12-27T13:58:59.883Z,2.70
2022-12-27T14:02:09.072Z,2.97
2022-12-27T14:05:27.921Z,2.50
2022-12-27T14:08:28.722Z,2.30
2022-12-27T14:11:31.611Z,2.80
2022-12-27T14:14:22.422Z,2.57
2022-12-27T14:17:23.620Z,2.70
2022-12-27T14:20:30.984Z,2.97
2022-12-27T14:23:38.770Z,2.60
2022-12-27T14:26:59.946Z,2.93
2022-12-27T14:30:21.589Z,2.87
2022-12-27T14:33:44.363Z,2.93
2022-12-27T14:37:10.422Z,2.90
2022-12-27T14:40:48.474Z,2.93
2022-12-27T14:44:37.443Z,3.20
2022-12-27T14:48:05.008Z,2.93
2022-12-27T14:51:58.676Z,3.10
2022-12-27T14:55:14.326Z,3.10
2022-12-27T14:58:27.970Z,3.47
2022-12-27T15:01:27.667Z,2.97
2022-12-27T15:04:47.834Z,3.30
2022-12-27T15:07:55.574Z,2.90
2022-12-27T15:11:01.175Z,3.37
2022-12-27T15:14:12.030Z,3.10
2022-12-27T15:17:14.416Z,3.27
2022-12-27T15:20:27.560Z,3.20
2022-12-27T15:23:26.538Z,3.30
2022-12-27T15:26:25.878Z,2.80
2022-12-27T15:29:46.074Z,3.30
2022-12-27T15:32:52.862Z,3.03
2022-12-27T15:36:01.989Z,3.20
2022-12-27T15:38:54.501Z,3.33
2022-12-27T15:41:59.552Z,3.60
2022-12-27T15:45:06.293Z,3.60
2022-12-27T15:48:25.597Z,3.53
2022-12-27T15:51:24.603Z,3.50
2022-12-27T15:54:53.651Z,4.00
2022-12-27T15:58:09.084Z,3.37
2022-12-27T16:01:26.267Z,3.60
2022-12-27T16:04:47.918Z,4.00
2022-12-27T16:07:41.946Z,4.30
2022-12-27T16:10:51.205Z,3.97
2022-12-27T16:13:48.887Z,4.07
2022-12-27T16:17:00.303Z,3.90
2022-12-27T16:20:04.907Z,3.83
2022-12-27T16:22:56.897Z,3.73
2022-12-27T16:25:46.371Z,5.00
2022-12-27T16:28:37.463Z,4.30
2022-12-27T16:31:28.461Z,3.47
2022-12-27T16:34:24.933Z,4.17
2022-12-27T16:37:29.240Z,4.03
2022-12-27T16:40:43.630Z,3.83
2022-12-27T16:43:53.347Z,4.37
2022-12-27T16:47:05.495Z,4.73
2022-12-27T16:50:41.223Z,3.90
2022-12-27T16:53:52.666Z,4.30
2022-12-27T16:56:45.171Z,3.90
2022-12-27T17:00:00.259Z,4.10
2022-12-27T17:02:50.350Z,4.20
2022-12-27T17:05:53.021Z,4.47
2022-12-27T17:09:33.814Z,4.00
2022-12-27T17:12:26.083Z,4.07
2022-12-27T17:15:15.744Z,4.70
2022-12-27T17:18:18.247Z,4.27
2022-12-27T17:21:14.476Z,5.03
2022-12-27T17:24:10.054Z,5.40
2022-12-27T17:27:18.481Z,4.77
2022-12-27T17:30:23.420Z,4.70
2022-12-27T17:33:37.175Z,4.37
2022-12-27T17:36:40.280Z,4.63
2022-12-27T17:39:49.960Z,4.83
2022-12-27T17:43:08.473Z,4.77
2022-12-27T17:46:10.823Z,5.47
2022-12-27T17:49:00.794Z,4.33
2022-12-27T17:52:06.821Z,4.77
2022-12-27T17:55:25.958Z,4.80
2022-12-27T17:58:18.651Z,4.87
2022-12-27T18:01:08.870Z,5.30
2022-12-27T18:03:58.758Z,5.00
2022-12-27T18:06:48.496Z,4.60
2022-12-27T18:09:42.677Z,4.90
2022-12-27T18:12:38.325Z,4.60
2022-12-27T18:15:29.608Z,4.40
2022-12-27T18:18:25.152Z,4.67
2022-12-27T18:21:23.753Z,4.70
2022-12-27T18:24:28.471Z,4.73
2022-12-27T18:27:22.459Z,4.80
2022-12-27T18:30:13.754Z,3.80
2022-12-27T18:33:07.125Z,4.80
2022-12-27T18:35:57.185Z,4.13
2022-12-27T18:38:49.513Z,4.10
2022-12-27T18:41:45.081Z,4.47
2022-12-27T18:44:45.517Z,3.87
2022-12-27T18:47:39.857Z,4.00
2022-12-27T18:50:33.203Z,4.60
2022-12-27T18:53:26.388Z,4.60
2022-12-27T18:56:31.174Z,4.77
2022-12-27T18:59:27.282Z,4.30
2022-12-27T21:34:48.760Z,3.40
2022-12-27T22:34:41.296Z,3.43
